sensor_id;sensor_type;location;lat;lon;timestamp;P1;durP1;ratioP1;P2;durP2;ratioP2
55210;SDS011;41082;52.822;6.666;2022-12-18T00:01:41;86.57;;;32.65;;
55210;SDS011;41082;52.822;6.666;2022-12-18T00:04:07;80.22;;;32.20;;
55210;SDS011;41082;52.822;6.666;2022-12-18T00:06:39;82.97;;;31.85;;
55210;SDS011;41082;52.822;6.666;2022-12-18T00:09:05;83.97;;;31.10;;
55210;SDS011;41082;52.822;6.666;2022-12-18T00:11:31;92.28;;;32.53;;
55210;SDS011;41082;52.822;6.666;2022-12-18T00:13:58;83.28;;;33.92;;
55210;SDS011;41082;52.822;6.666;2022-12-18T00:16:25;88.45;;;32.47;;
55210;SDS011;41082;52.822;6.666;2022-12-18T00:18:52;91.43;;;32.42;;
55210;SDS011;41082;52.822;6.666;2022-12-18T00:21:21;81.13;;;32.63;;
55210;SDS011;41082;52.822;6.666;2022-12-18T00:23:47;84.15;;;31.13;;
55210;SDS011;41082;52.822;6.666;2022-12-18T00:26:15;78.70;;;31.02;;
55210;SDS011;41082;52.822;6.666;2022-12-18T00:28:43;80.47;;;30.13;;
55210;SDS011;41082;52.822;6.666;2022-12-18T00:31:10;83.35;;;32.42;;
55210;SDS011;41082;52.822;6.666;2022-12-18T00:33:44;77.55;;;28.73;;
55210;SDS011;41082;52.822;6.666;2022-12-18T00:36:11;74.25;;;30.65;;
55210;SDS011;41082;52.822;6.666;2022-12-18T00:38:39;76.60;;;29.40;;
55210;SDS011;41082;52.822;6.666;2022-12-18T00:41:06;80.28;;;30.17;;
55210;SDS011;41082;52.822;6.666;2022-12-18T00:43:35;84.03;;;31.67;;
55210;SDS011;41082;52.822;6.666;2022-12-18T00:46:02;77.95;;;31.25;;
55210;SDS011;41082;52.822;6.666;2022-12-18T00:48:27;81.22;;;31.73;;
55210;SDS011;41082;52.822;6.666;2022-12-18T00:50:53;84.47;;;31.30;;
55210;SDS011;41082;52.822;6.666;2022-12-18T00:53:19;89.75;;;33.50;;
55210;SDS011;41082;52.822;6.666;2022-12-18T00:55:44;84.50;;;33.30;;
55210;SDS011;41082;52.822;6.666;2022-12-18T00:58:11;82.85;;;32.63;;
55210;SDS011;41082;52.822;6.666;2022-12-18T01:00:37;84.55;;;33.13;;
55210;SDS011;41082;52.822;6.666;2022-12-18T01:03:03;85.45;;;34.28;;
55210;SDS011;41082;52.822;6.666;2022-12-18T01:05:30;79.38;;;31.90;;
55210;SDS011;41082;52.822;6.666;2022-12-18T01:07:55;75.85;;;31.27;;
55210;SDS011;41082;52.822;6.666;2022-12-18T01:10:22;81.68;;;32.97;;
55210;SDS011;41082;52.822;6.666;2022-12-18T01:12:48;83.15;;;31.33;;
55210;SDS011;41082;52.822;6.666;2022-12-18T01:15:14;88.13;;;33.28;;
55210;SDS011;41082;52.822;6.666;2022-12-18T01:17:41;86.32;;;31.58;;
55210;SDS011;41082;52.822;6.666;2022-12-18T01:20:07;83.38;;;32.95;;
55210;SDS011;41082;52.822;6.666;2022-12-18T01:22:34;83.85;;;31.42;;
55210;SDS011;41082;52.822;6.666;2022-12-18T01:25:00;87.50;;;33.92;;
55210;SDS011;41082;52.822;6.666;2022-12-18T01:27:26;82.57;;;32.20;;
55210;SDS011;41082;52.822;6.666;2022-12-18T01:29:52;92.55;;;34.72;;
55210;SDS011;41082;52.822;6.666;2022-12-18T01:32:17;83.43;;;32.47;;
55210;SDS011;41082;52.822;6.666;2022-12-18T01:34:44;88.93;;;32.65;;
55210;SDS011;41082;52.822;6.666;2022-12-18T01:37:09;85.70;;;30.92;;
55210;SDS011;41082;52.822;6.666;2022-12-18T01:39:35;90.53;;;33.70;;
55210;SDS011;41082;52.822;6.666;2022-12-18T01:42:09;86.45;;;33.47;;
55210;SDS011;41082;52.822;6.666;2022-12-18T01:47:38;84.68;;;31.70;;
55210;SDS011;41082;52.822;6.666;2022-12-18T01:50:15;86.47;;;32.28;;
55210;SDS011;41082;52.822;6.666;2022-12-18T01:55:28;88.53;;;31.60;;
55210;SDS011;41082;52.822;6.666;2022-12-18T01:57:56;80.97;;;31.15;;
55210;SDS011;41082;52.822;6.666;2022-12-18T02:00:25;86.45;;;32.17;;
55210;SDS011;41082;52.822;6.666;2022-12-18T02:02:52;91.05;;;31.80;;
55210;SDS011;41082;52.822;6.666;2022-12-18T02:05:19;89.95;;;34.25;;
55210;SDS011;41082;52.822;6.666;2022-12-18T02:08:10;79.78;;;30.13;;
55210;SDS011;41082;52.822;6.666;2022-12-18T02:10:57;88.43;;;32.10;;
55210;SDS011;41082;52.822;6.666;2022-12-18T02:13:41;87.50;;;30.73;;
55210;SDS011;41082;52.822;6.666;2022-12-18T02:16:17;85.75;;;31.13;;
55210;SDS011;41082;52.822;6.666;2022-12-18T02:18:50;71.97;;;27.15;;
55210;SDS011;41082;52.822;6.666;2022-12-18T02:21:30;82.90;;;31.35;;
55210;SDS011;41082;52.822;6.666;2022-12-18T02:24:10;84.03;;;30.13;;
55210;SDS011;41082;52.822;6.666;2022-12-18T02:26:56;80.68;;;29.35;;
55210;SDS011;41082;52.822;6.666;2022-12-18T02:29:41;85.85;;;31.75;;
55210;SDS011;41082;52.822;6.666;2022-12-18T02:32:15;85.78;;;29.85;;
55210;SDS011;41082;52.822;6.666;2022-12-18T02:34:47;82.47;;;29.38;;
55210;SDS011;41082;52.822;6.666;2022-12-18T02:37:16;82.32;;;31.13;;
55210;SDS011;41082;52.822;6.666;2022-12-18T02:39:43;82.38;;;28.98;;
55210;SDS011;41082;52.822;6.666;2022-12-18T02:42:11;91.60;;;29.27;;
55210;SDS011;41082;52.822;6.666;2022-12-18T02:44:44;77.30;;;29.08;;
55210;SDS011;41082;52.822;6.666;2022-12-18T02:47:11;78.57;;;28.05;;
55210;SDS011;41082;52.822;6.666;2022-12-18T02:49:53;77.90;;;27.60;;
55210;SDS011;41082;52.822;6.666;2022-12-18T02:52:43;76.00;;;28.40;;
55210;SDS011;41082;52.822;6.666;2022-12-18T03:00:35;75.82;;;28.50;;
55210;SDS011;41082;52.822;6.666;2022-12-18T03:05:38;76.30;;;27.40;;
55210;SDS011;41082;52.822;6.666;2022-12-18T03:08:14;77.45;;;28.08;;
55210;SDS011;41082;52.822;6.666;2022-12-18T03:10:46;65.10;;;26.67;;
55210;SDS011;41082;52.822;6.666;2022-12-18T03:13:34;74.75;;;25.42;;
55210;SDS011;41082;52.822;6.666;2022-12-18T03:16:08;72.80;;;27.25;;
55210;SDS011;41082;52.822;6.666;2022-12-18T03:21:06;68.07;;;25.90;;
55210;SDS011;41082;52.822;6.666;2022-12-18T03:23:34;71.38;;;27.02;;
55210;SDS011;41082;52.822;6.666;2022-12-18T03:26:05;65.60;;;25.25;;
55210;SDS011;41082;52.822;6.666;2022-12-18T03:28:35;69.40;;;27.80;;
55210;SDS011;41082;52.822;6.666;2022-12-18T03:31:05;73.15;;;26.33;;
55210;SDS011;41082;52.822;6.666;2022-12-18T03:33:37;66.65;;;25.67;;
55210;SDS011;41082;52.822;6.666;2022-12-18T03:36:21;61.83;;;24.02;;
55210;SDS011;41082;52.822;6.666;2022-12-18T03:38:48;58.90;;;24.33;;
55210;SDS011;41082;52.822;6.666;2022-12-18T03:41:26;57.63;;;24.35;;
55210;SDS011;41082;52.822;6.666;2022-12-18T03:44:06;62.13;;;25.10;;
55210;SDS011;41082;52.822;6.666;2022-12-18T03:49:34;57.47;;;23.63;;
55210;SDS011;41082;52.822;6.666;2022-12-18T03:52:05;63.58;;;23.27;;
55210;SDS011;41082;52.822;6.666;2022-12-18T03:54:42;58.30;;;22.95;;
55210;SDS011;41082;52.822;6.666;2022-12-18T03:57:13;53.50;;;22.33;;
55210;SDS011;41082;52.822;6.666;2022-12-18T03:59:43;54.50;;;22.90;;
55210;SDS011;41082;52.822;6.666;2022-12-18T04:02:10;56.72;;;23.45;;
55210;SDS011;41082;52.822;6.666;2022-12-18T04:04:37;56.83;;;21.05;;
55210;SDS011;41082;52.822;6.666;2022-12-18T04:07:05;54.88;;;21.80;;
55210;SDS011;41082;52.822;6.666;2022-12-18T04:09:31;49.95;;;22.23;;
55210;SDS011;41082;52.822;6.666;2022-12-18T04:11:58;57.35;;;21.23;;
55210;SDS011;41082;52.822;6.666;2022-12-18T04:14:24;47.58;;;20.00;;
55210;SDS011;41082;52.822;6.666;2022-12-18T04:16:49;50.22;;;19.38;;
55210;SDS011;41082;52.822;6.666;2022-12-18T04:19:15;54.55;;;20.30;;
55210;SDS011;41082;52.822;6.666;2022-12-18T04:21:41;52.63;;;20.33;;
55210;SDS011;41082;52.822;6.666;2022-12-18T04:24:06;51.92;;;19.38;;
55210;SDS011;41082;52.822;6.666;2022-12-18T04:26:33;46.50;;;18.92;;
55210;SDS011;41082;52.822;6.666;2022-12-18T04:28:59;45.53;;;19.33;;
55210;SDS011;41082;52.822;6.666;2022-12-18T04:31:25;43.50;;;18.98;;
55210;SDS011;41082;52.822;6.666;2022-12-18T04:33:50;50.10;;;19.25;;
55210;SDS011;41082;52.822;6.666;2022-12-18T04:36:16;42.60;;;20.10;;
55210;SDS011;41082;52.822;6.666;2022-12-18T04:38:41;45.38;;;18.25;;
55210;SDS011;41082;52.822;6.666;2022-12-18T04:41:07;46.30;;;19.90;;
55210;SDS011;41082;52.822;6.666;2022-12-18T04:43:32;50.58;;;20.58;;
55210;SDS011;41082;52.822;6.666;2022-12-18T04:46:07;44.22;;;19.65;;
55210;SDS011;41082;52.822;6.666;2022-12-18T04:48:33;48.13;;;19.50;;
55210;SDS011;41082;52.822;6.666;2022-12-18T04:50:59;44.13;;;18.10;;
55210;SDS011;41082;52.822;6.666;2022-12-18T04:53:25;44.75;;;18.38;;
55210;SDS011;41082;52.822;6.666;2022-12-18T04:55:50;47.88;;;20.65;;
55210;SDS011;41082;52.822;6.666;2022-12-18T04:58:26;39.63;;;18.13;;
55210;SDS011;41082;52.822;6.666;2022-12-18T05:00:52;46.45;;;17.95;;
55210;SDS011;41082;52.822;6.666;2022-12-18T05:03:18;42.58;;;18.73;;
55210;SDS011;41082;52.822;6.666;2022-12-18T05:05:43;44.75;;;20.02;;
55210;SDS011;41082;52.822;6.666;2022-12-18T05:08:09;43.83;;;18.45;;
55210;SDS011;41082;52.822;6.666;2022-12-18T05:10:34;47.38;;;20.73;;
55210;SDS011;41082;52.822;6.666;2022-12-18T05:13:00;44.63;;;17.90;;
55210;SDS011;41082;52.822;6.666;2022-12-18T05:15:29;42.65;;;18.65;;
55210;SDS011;41082;52.822;6.666;2022-12-18T05:17:56;44.08;;;19.17;;
55210;SDS011;41082;52.822;6.666;2022-12-18T05:20:23;42.42;;;18.48;;
55210;SDS011;41082;52.822;6.666;2022-12-18T05:22:49;49.50;;;20.88;;
55210;SDS011;41082;52.822;6.666;2022-12-18T05:25:15;46.08;;;19.23;;
55210;SDS011;41082;52.822;6.666;2022-12-18T05:27:41;40.22;;;17.20;;
55210;SDS011;41082;52.822;6.666;2022-12-18T05:30:07;38.85;;;16.98;;
55210;SDS011;41082;52.822;6.666;2022-12-18T05:32:33;40.83;;;17.33;;
55210;SDS011;41082;52.822;6.666;2022-12-18T05:34:59;43.97;;;18.85;;
55210;SDS011;41082;52.822;6.666;2022-12-18T05:37:24;41.42;;;16.27;;
55210;SDS011;41082;52.822;6.666;2022-12-18T05:39:50;36.85;;;16.85;;
55210;SDS011;41082;52.822;6.666;2022-12-18T05:42:15;38.72;;;18.08;;
55210;SDS011;41082;52.822;6.666;2022-12-18T05:44:41;40.17;;;16.02;;
55210;SDS011;41082;52.822;6.666;2022-12-18T05:47:07;40.53;;;16.73;;
55210;SDS011;41082;52.822;6.666;2022-12-18T05:49:33;41.05;;;17.40;;
55210;SDS011;41082;52.822;6.666;2022-12-18T05:51:59;40.15;;;16.92;;
55210;SDS011;41082;52.822;6.666;2022-12-18T05:54:26;37.15;;;15.77;;
55210;SDS011;41082;52.822;6.666;2022-12-18T05:56:52;33.90;;;17.23;;
55210;SDS011;41082;52.822;6.666;2022-12-18T05:59:18;36.67;;;16.20;;
55210;SDS011;41082;52.822;6.666;2022-12-18T06:01:44;34.63;;;15.80;;
55210;SDS011;41082;52.822;6.666;2022-12-18T06:04:10;34.95;;;14.85;;
55210;SDS011;41082;52.822;6.666;2022-12-18T06:06:35;33.08;;;15.55;;
55210;SDS011;41082;52.822;6.666;2022-12-18T06:09:01;38.00;;;18.00;;
55210;SDS011;41082;52.822;6.666;2022-12-18T06:11:33;36.78;;;18.15;;
55210;SDS011;41082;52.822;6.666;2022-12-18T06:13:59;37.90;;;15.55;;
55210;SDS011;41082;52.822;6.666;2022-12-18T06:16:26;32.47;;;16.45;;
55210;SDS011;41082;52.822;6.666;2022-12-18T06:18:52;37.60;;;16.73;;
55210;SDS011;41082;52.822;6.666;2022-12-18T06:21:18;32.95;;;14.57;;
55210;SDS011;41082;52.822;6.666;2022-12-18T06:23:44;32.17;;;16.48;;
55210;SDS011;41082;52.822;6.666;2022-12-18T06:26:10;35.72;;;15.43;;
55210;SDS011;41082;52.822;6.666;2022-12-18T06:28:37;29.02;;;13.85;;
55210;SDS011;41082;52.822;6.666;2022-12-18T06:31:03;35.35;;;15.82;;
55210;SDS011;41082;52.822;6.666;2022-12-18T06:33:29;46.75;;;19.55;;
55210;SDS011;41082;52.822;6.666;2022-12-18T06:36:28;32.85;;;15.50;;
55210;SDS011;41082;52.822;6.666;2022-12-18T06:38:47;31.17;;;14.45;;
55210;SDS011;41082;52.822;6.666;2022-12-18T06:41:16;31.08;;;14.18;;
55210;SDS011;41082;52.822;6.666;2022-12-18T06:43:43;29.87;;;14.60;;
55210;SDS011;41082;52.822;6.666;2022-12-18T06:46:09;30.60;;;14.57;;
55210;SDS011;41082;52.822;6.666;2022-12-18T06:48:35;31.23;;;14.65;;
55210;SDS011;41082;52.822;6.666;2022-12-18T06:51:01;32.08;;;14.50;;
55210;SDS011;41082;52.822;6.666;2022-12-18T06:53:27;31.52;;;15.60;;
55210;SDS011;41082;52.822;6.666;2022-12-18T06:55:52;30.33;;;13.45;;
55210;SDS011;41082;52.822;6.666;2022-12-18T06:58:24;28.42;;;13.50;;
55210;SDS011;41082;52.822;6.666;2022-12-18T07:00:50;28.88;;;13.40;;
55210;SDS011;41082;52.822;6.666;2022-12-18T07:03:15;31.80;;;14.43;;
55210;SDS011;41082;52.822;6.666;2022-12-18T07:05:41;30.08;;;14.45;;
55210;SDS011;41082;52.822;6.666;2022-12-18T07:08:06;32.63;;;13.93;;
55210;SDS011;41082;52.822;6.666;2022-12-18T07:10:33;28.80;;;13.40;;
55210;SDS011;41082;52.822;6.666;2022-12-18T07:12:58;30.55;;;14.40;;
55210;SDS011;41082;52.822;6.666;2022-12-18T07:15:24;26.90;;;13.00;;
55210;SDS011;41082;52.822;6.666;2022-12-18T07:17:49;28.75;;;13.30;;
55210;SDS011;41082;52.822;6.666;2022-12-18T07:20:15;28.70;;;13.68;;
55210;SDS011;41082;52.822;6.666;2022-12-18T07:22:40;32.10;;;14.27;;
55210;SDS011;41082;52.822;6.666;2022-12-18T07:25:06;27.23;;;13.15;;
55210;SDS011;41082;52.822;6.666;2022-12-18T07:27:32;29.67;;;15.13;;
55210;SDS011;41082;52.822;6.666;2022-12-18T07:29:58;28.35;;;13.65;;
55210;SDS011;41082;52.822;6.666;2022-12-18T07:32:23;26.20;;;13.43;;
55210;SDS011;41082;52.822;6.666;2022-12-18T07:34:49;26.30;;;12.35;;
55210;SDS011;41082;52.822;6.666;2022-12-18T07:37:14;25.75;;;12.60;;
55210;SDS011;41082;52.822;6.666;2022-12-18T07:39:40;24.42;;;12.98;;
55210;SDS011;41082;52.822;6.666;2022-12-18T07:42:08;27.98;;;13.02;;
55210;SDS011;41082;52.822;6.666;2022-12-18T07:44:53;26.98;;;12.30;;
55210;SDS011;41082;52.822;6.666;2022-12-18T07:47:18;26.15;;;12.15;;
55210;SDS011;41082;52.822;6.666;2022-12-18T07:49:44;27.05;;;13.60;;
55210;SDS011;41082;52.822;6.666;2022-12-18T07:52:10;24.10;;;12.50;;
55210;SDS011;41082;52.822;6.666;2022-12-18T07:54:37;26.67;;;13.30;;
55210;SDS011;41082;52.822;6.666;2022-12-18T07:57:03;24.75;;;11.27;;
55210;SDS011;41082;52.822;6.666;2022-12-18T07:59:28;26.60;;;11.93;;
55210;SDS011;41082;52.822;6.666;2022-12-18T08:01:54;89.82;;;44.72;;
55210;SDS011;41082;52.822;6.666;2022-12-18T08:04:19;75.07;;;41.47;;
55210;SDS011;41082;52.822;6.666;2022-12-18T08:06:45;34.63;;;18.80;;
55210;SDS011;41082;52.822;6.666;2022-12-18T08:09:11;31.33;;;15.63;;
55210;SDS011;41082;52.822;6.666;2022-12-18T08:11:37;31.10;;;19.48;;
55210;SDS011;41082;52.822;6.666;2022-12-18T08:14:02;24.90;;;14.68;;
55210;SDS011;41082;52.822;6.666;2022-12-18T08:16:28;22.25;;;12.82;;
55210;SDS011;41082;52.822;6.666;2022-12-18T08:18:54;25.83;;;14.20;;
55210;SDS011;41082;52.822;6.666;2022-12-18T08:21:21;22.77;;;12.25;;
55210;SDS011;41082;52.822;6.666;2022-12-18T08:23:52;25.90;;;13.35;;
55210;SDS011;41082;52.822;6.666;2022-12-18T08:26:20;24.23;;;14.73;;
55210;SDS011;41082;52.822;6.666;2022-12-18T08:28:47;27.95;;;15.75;;
55210;SDS011;41082;52.822;6.666;2022-12-18T08:31:13;28.80;;;15.68;;
55210;SDS011;41082;52.822;6.666;2022-12-18T08:33:39;24.42;;;15.15;;
55210;SDS011;41082;52.822;6.666;2022-12-18T08:36:05;24.17;;;12.05;;
55210;SDS011;41082;52.822;6.666;2022-12-18T08:38:32;24.98;;;13.40;;
55210;SDS011;41082;52.822;6.666;2022-12-18T08:41:07;21.92;;;12.02;;
55210;SDS011;41082;52.822;6.666;2022-12-18T08:43:35;30.50;;;16.52;;
55210;SDS011;41082;52.822;6.666;2022-12-18T08:46:19;106.68;;;43.05;;
55210;SDS011;41082;52.822;6.666;2022-12-18T08:48:46;188.75;;;72.28;;
55210;SDS011;41082;52.822;6.666;2022-12-18T08:51:12;289.02;;;113.60;;
55210;SDS011;41082;52.822;6.666;2022-12-18T08:53:40;342.75;;;134.32;;
55210;SDS011;41082;52.822;6.666;2022-12-18T08:56:07;66.25;;;35.35;;
55210;SDS011;41082;52.822;6.666;2022-12-18T08:58:33;55.40;;;30.02;;
55210;SDS011;41082;52.822;6.666;2022-12-18T09:01:02;35.38;;;18.83;;
55210;SDS011;41082;52.822;6.666;2022-12-18T09:03:29;40.63;;;23.73;;
55210;SDS011;41082;52.822;6.666;2022-12-18T09:05:55;32.75;;;19.08;;
55210;SDS011;41082;52.822;6.666;2022-12-18T09:08:21;24.73;;;14.52;;
55210;SDS011;41082;52.822;6.666;2022-12-18T09:10:48;28.55;;;17.35;;
55210;SDS011;41082;52.822;6.666;2022-12-18T09:13:15;20.50;;;10.68;;
55210;SDS011;41082;52.822;6.666;2022-12-18T09:15:42;19.67;;;9.73;;
55210;SDS011;41082;52.822;6.666;2022-12-18T09:18:12;20.15;;;10.05;;
55210;SDS011;41082;52.822;6.666;2022-12-18T09:20:39;18.70;;;9.38;;
55210;SDS011;41082;52.822;6.666;2022-12-18T09:23:05;18.38;;;9.00;;
55210;SDS011;41082;52.822;6.666;2022-12-18T09:25:32;16.13;;;9.35;;
55210;SDS011;41082;52.822;6.666;2022-12-18T09:27:59;15.68;;;8.13;;
55210;SDS011;41082;52.822;6.666;2022-12-18T09:30:25;38.88;;;18.58;;
55210;SDS011;41082;52.822;6.666;2022-12-18T09:32:54;15.82;;;9.07;;
55210;SDS011;41082;52.822;6.666;2022-12-18T09:35:20;16.05;;;8.95;;
55210;SDS011;41082;52.822;6.666;2022-12-18T09:37:46;18.67;;;8.38;;
55210;SDS011;41082;52.822;6.666;2022-12-18T09:40:16;17.13;;;9.00;;
55210;SDS011;41082;52.822;6.666;2022-12-18T09:43:00;16.63;;;8.52;;
55210;SDS011;41082;52.822;6.666;2022-12-18T09:45:33;13.10;;;8.07;;
55210;SDS011;41082;52.822;6.666;2022-12-18T09:48:26;13.85;;;7.50;;
55210;SDS011;41082;52.822;6.666;2022-12-18T09:51:00;15.75;;;7.22;;
55210;SDS011;41082;52.822;6.666;2022-12-18T09:53:31;9.73;;;5.95;;
55210;SDS011;41082;52.822;6.666;2022-12-18T09:56:01;13.68;;;7.55;;
55210;SDS011;41082;52.822;6.666;2022-12-18T10:01:01;14.07;;;6.60;;
55210;SDS011;41082;52.822;6.666;2022-12-18T10:03:27;12.18;;;6.35;;
55210;SDS011;41082;52.822;6.666;2022-12-18T10:13:52;11.65;;;6.45;;
55210;SDS011;41082;52.822;6.666;2022-12-18T10:19:33;18.73;;;8.10;;
55210;SDS011;41082;52.822;6.666;2022-12-18T10:25:00;23.48;;;15.85;;
55210;SDS011;41082;52.822;6.666;2022-12-18T10:30:39;10.95;;;6.30;;
55210;SDS011;41082;52.822;6.666;2022-12-18T10:35:26;9.00;;;4.57;;
55210;SDS011;41082;52.822;6.666;2022-12-18T10:37:59;10.55;;;5.40;;
55210;SDS011;41082;52.822;6.666;2022-12-18T10:40:49;8.57;;;5.10;;
55210;SDS011;41082;52.822;6.666;2022-12-18T10:43:23;9.15;;;4.82;;
55210;SDS011;41082;52.822;6.666;2022-12-18T10:45:58;8.73;;;4.95;;
55210;SDS011;41082;52.822;6.666;2022-12-18T10:48:31;9.82;;;4.90;;
55210;SDS011;41082;52.822;6.666;2022-12-18T10:50:58;8.50;;;4.38;;
55210;SDS011;41082;52.822;6.666;2022-12-18T10:53:25;9.73;;;5.05;;
55210;SDS011;41082;52.822;6.666;2022-12-18T10:55:56;6.90;;;4.30;;
55210;SDS011;41082;52.822;6.666;2022-12-18T11:01:13;8.93;;;5.47;;
55210;SDS011;41082;52.822;6.666;2022-12-18T11:06:13;8.20;;;4.55;;
55210;SDS011;41082;52.822;6.666;2022-12-18T11:08:41;6.78;;;4.20;;
55210;SDS011;41082;52.822;6.666;2022-12-18T11:11:15;8.63;;;4.50;;
55210;SDS011;41082;52.822;6.666;2022-12-18T11:14:01;6.53;;;3.75;;
55210;SDS011;41082;52.822;6.666;2022-12-18T11:21:55;9.38;;;5.10;;
55210;SDS011;41082;52.822;6.666;2022-12-18T11:24:34;11.27;;;5.00;;
55210;SDS011;41082;52.822;6.666;2022-12-18T11:27:04;7.95;;;3.78;;
55210;SDS011;41082;52.822;6.666;2022-12-18T11:34:57;6.05;;;3.58;;
55210;SDS011;41082;52.822;6.666;2022-12-18T11:37:35;6.80;;;3.67;;
55210;SDS011;41082;52.822;6.666;2022-12-18T11:40:03;7.82;;;3.53;;
55210;SDS011;41082;52.822;6.666;2022-12-18T11:42:37;6.72;;;4.00;;
55210;SDS011;41082;52.822;6.666;2022-12-18T11:45:30;6.22;;;3.35;;
55210;SDS011;41082;52.822;6.666;2022-12-18T11:50:53;9.23;;;4.50;;
55210;SDS011;41082;52.822;6.666;2022-12-18T11:53:21;7.50;;;4.28;;
55210;SDS011;41082;52.822;6.666;2022-12-18T11:55:50;7.72;;;4.32;;
55210;SDS011;41082;52.822;6.666;2022-12-18T12:01:17;17.38;;;7.78;;
55210;SDS011;41082;52.822;6.666;2022-12-18T12:22:53;8.02;;;4.20;;
55210;SDS011;41082;52.822;6.666;2022-12-18T12:25:40;13.77;;;6.93;;
55210;SDS011;41082;52.822;6.666;2022-12-18T12:28:28;8.70;;;4.53;;
55210;SDS011;41082;52.822;6.666;2022-12-18T12:41:53;8.07;;;4.63;;
55210;SDS011;41082;52.822;6.666;2022-12-18T12:44:40;8.48;;;3.85;;
55210;SDS011;41082;52.822;6.666;2022-12-18T12:47:16;9.25;;;4.35;;
55210;SDS011;41082;52.822;6.666;2022-12-18T12:49:46;7.53;;;4.03;;
55210;SDS011;41082;52.822;6.666;2022-12-18T12:52:15;8.85;;;4.43;;
55210;SDS011;41082;52.822;6.666;2022-12-18T12:54:46;7.35;;;4.13;;
55210;SDS011;41082;52.822;6.666;2022-12-18T13:00:14;12.05;;;5.65;;
55210;SDS011;41082;52.822;6.666;2022-12-18T13:05:14;8.15;;;4.90;;
55210;SDS011;41082;52.822;6.666;2022-12-18T13:08:26;8.40;;;4.28;;
55210;SDS011;41082;52.822;6.666;2022-12-18T13:10:54;10.93;;;4.13;;
55210;SDS011;41082;52.822;6.666;2022-12-18T13:13:48;7.53;;;4.43;;
55210;SDS011;41082;52.822;6.666;2022-12-18T13:16:22;9.55;;;4.05;;
55210;SDS011;41082;52.822;6.666;2022-12-18T13:18:50;7.30;;;4.20;;
55210;SDS011;41082;52.822;6.666;2022-12-18T13:21:21;8.68;;;4.53;;
55210;SDS011;41082;52.822;6.666;2022-12-18T13:23:52;8.82;;;6.05;;
55210;SDS011;41082;52.822;6.666;2022-12-18T13:34:19;10.07;;;6.50;;
55210;SDS011;41082;52.822;6.666;2022-12-18T13:36:49;12.05;;;6.90;;
55210;SDS011;41082;52.822;6.666;2022-12-18T13:41:45;10.25;;;6.78;;
55210;SDS011;41082;52.822;6.666;2022-12-18T13:44:25;7.53;;;5.00;;
55210;SDS011;41082;52.822;6.666;2022-12-18T13:46:58;11.98;;;7.40;;
55210;SDS011;41082;52.822;6.666;2022-12-18T13:49:40;7.07;;;4.88;;
55210;SDS011;41082;52.822;6.666;2022-12-18T13:52:17;10.48;;;5.13;;
55210;SDS011;41082;52.822;6.666;2022-12-18T13:54:47;10.38;;;5.97;;
55210;SDS011;41082;52.822;6.666;2022-12-18T13:57:36;8.40;;;4.90;;
55210;SDS011;41082;52.822;6.666;2022-12-18T14:00:17;9.13;;;6.57;;
55210;SDS011;41082;52.822;6.666;2022-12-18T14:02:48;8.73;;;6.25;;
55210;SDS011;41082;52.822;6.666;2022-12-18T14:05:31;11.93;;;6.15;;
55210;SDS011;41082;52.822;6.666;2022-12-18T14:08:01;41.22;;;14.10;;
55210;SDS011;41082;52.822;6.666;2022-12-18T14:10:31;196.20;;;79.43;;
55210;SDS011;41082;52.822;6.666;2022-12-18T14:12:57;19.13;;;12.13;;
55210;SDS011;41082;52.822;6.666;2022-12-18T14:20:35;11.25;;;6.43;;
55210;SDS011;41082;52.822;6.666;2022-12-18T14:23:01;9.63;;;5.57;;
55210;SDS011;41082;52.822;6.666;2022-12-18T14:25:27;7.90;;;5.28;;
55210;SDS011;41082;52.822;6.666;2022-12-18T14:33:09;9.80;;;5.57;;
55210;SDS011;41082;52.822;6.666;2022-12-18T14:35:53;10.57;;;5.75;;
55210;SDS011;41082;52.822;6.666;2022-12-18T14:38:31;10.60;;;6.07;;
55210;SDS011;41082;52.822;6.666;2022-12-18T14:40:59;11.43;;;5.28;;
55210;SDS011;41082;52.822;6.666;2022-12-18T14:43:27;11.00;;;6.13;;
55210;SDS011;41082;52.822;6.666;2022-12-18T14:45:55;14.40;;;7.32;;
55210;SDS011;41082;52.822;6.666;2022-12-18T14:48:25;48.03;;;26.45;;
55210;SDS011;41082;52.822;6.666;2022-12-18T14:53:42;11.30;;;6.40;;
55210;SDS011;41082;52.822;6.666;2022-12-18T14:56:18;9.23;;;6.22;;
55210;SDS011;41082;52.822;6.666;2022-12-18T14:58:47;10.40;;;6.35;;
55210;SDS011;41082;52.822;6.666;2022-12-18T15:04:32;9.65;;;6.43;;
55210;SDS011;41082;52.822;6.666;2022-12-18T15:09:36;13.32;;;7.05;;
55210;SDS011;41082;52.822;6.666;2022-12-18T15:12:02;11.88;;;6.30;;
55210;SDS011;41082;52.822;6.666;2022-12-18T15:14:33;13.68;;;6.18;;
55210;SDS011;41082;52.822;6.666;2022-12-18T15:17:05;10.90;;;6.20;;
55210;SDS011;41082;52.822;6.666;2022-12-18T15:19:39;11.43;;;6.82;;
55210;SDS011;41082;52.822;6.666;2022-12-18T15:22:21;12.15;;;7.20;;
55210;SDS011;41082;52.822;6.666;2022-12-18T15:24:50;12.25;;;6.20;;
55210;SDS011;41082;52.822;6.666;2022-12-18T15:27:26;9.43;;;6.85;;
55210;SDS011;41082;52.822;6.666;2022-12-18T15:32:35;11.65;;;6.70;;
55210;SDS011;41082;52.822;6.666;2022-12-18T15:35:23;10.13;;;5.95;;
55210;SDS011;41082;52.822;6.666;2022-12-18T15:37:52;10.93;;;6.43;;
55210;SDS011;41082;52.822;6.666;2022-12-18T15:40:18;12.38;;;6.85;;
55210;SDS011;41082;52.822;6.666;2022-12-18T15:42:50;15.23;;;8.03;;
55210;SDS011;41082;52.822;6.666;2022-12-18T15:45:36;11.75;;;7.28;;
55210;SDS011;41082;52.822;6.666;2022-12-18T15:48:04;13.35;;;6.82;;
55210;SDS011;41082;52.822;6.666;2022-12-18T15:50:42;12.38;;;7.40;;
55210;SDS011;41082;52.822;6.666;2022-12-18T15:53:08;10.40;;;6.13;;
55210;SDS011;41082;52.822;6.666;2022-12-18T15:55:34;11.55;;;6.82;;
55210;SDS011;41082;52.822;6.666;2022-12-18T15:58:18;12.80;;;7.18;;
55210;SDS011;41082;52.822;6.666;2022-12-18T16:00:45;20.42;;;11.52;;
55210;SDS011;41082;52.822;6.666;2022-12-18T16:03:11;12.27;;;7.05;;
55210;SDS011;41082;52.822;6.666;2022-12-18T16:05:36;12.02;;;7.25;;
55210;SDS011;41082;52.822;6.666;2022-12-18T16:08:02;11.23;;;7.13;;
55210;SDS011;41082;52.822;6.666;2022-12-18T16:10:28;11.80;;;7.45;;
55210;SDS011;41082;52.822;6.666;2022-12-18T16:12:54;13.57;;;7.90;;
55210;SDS011;41082;52.822;6.666;2022-12-18T16:15:19;17.70;;;7.45;;
55210;SDS011;41082;52.822;6.666;2022-12-18T16:17:45;12.52;;;7.28;;
55210;SDS011;41082;52.822;6.666;2022-12-18T16:20:16;14.55;;;8.23;;
55210;SDS011;41082;52.822;6.666;2022-12-18T16:22:44;10.48;;;7.43;;
55210;SDS011;41082;52.822;6.666;2022-12-18T16:25:24;15.55;;;7.70;;
55210;SDS011;41082;52.822;6.666;2022-12-18T16:27:53;13.00;;;6.95;;
55210;SDS011;41082;52.822;6.666;2022-12-18T16:30:23;13.15;;;7.30;;
55210;SDS011;41082;52.822;6.666;2022-12-18T16:32:55;12.25;;;7.32;;
55210;SDS011;41082;52.822;6.666;2022-12-18T16:35:22;14.98;;;7.85;;
55210;SDS011;41082;52.822;6.666;2022-12-18T16:37:48;13.63;;;7.43;;
55210;SDS011;41082;52.822;6.666;2022-12-18T16:40:15;13.63;;;8.25;;
55210;SDS011;41082;52.822;6.666;2022-12-18T16:42:42;13.00;;;7.40;;
55210;SDS011;41082;52.822;6.666;2022-12-18T16:45:11;17.67;;;7.53;;
55210;SDS011;41082;52.822;6.666;2022-12-18T16:47:38;11.98;;;7.22;;
55210;SDS011;41082;52.822;6.666;2022-12-18T16:50:04;14.20;;;8.18;;
55210;SDS011;41082;52.822;6.666;2022-12-18T16:52:30;13.95;;;8.65;;
55210;SDS011;41082;52.822;6.666;2022-12-18T16:54:56;14.40;;;9.20;;